Atlantic - Newfoundland: Past 24 Hour Conditions

 

Grates Cove

09:30 AM NDT 28 August 2014
This table is a summary of hourly weather conditions for the past 24 hours.
Date / Time
(NDT)
Wind(knots) Conditions Visibility(km) Pressure(kPa) Air tempC) Relative humidity(%) Dew pointC) Humidex
28 August 2014
9:30 ENE 16 N/A N/A 100.7 12 96 12 *
8:30 ENE 15 N/A N/A 100.7 13 97 12 *
7:30 ENE 14 N/A N/A 100.6 12 96 12 *
6:30 ENE 14 N/A N/A 100.6 12 96 12 *
5:30 ENE 14 N/A N/A 100.6 12 97 12 *
4:30 NE 13 gust 18 N/A N/A 100.6 13 96 12 *
3:30 NE 13 N/A N/A 100.6 13 97 12 *
2:30 NE 11 gust 16 N/A N/A 100.5 13 97 12 *
1:30 NNE 14 gust 19 N/A N/A 100.5 13 96 13 *
0:30 WSW 14 gust 19 N/A N/A 100.5 17 94 16 *
27 August 2014
23:30 WSW 21 N/A N/A 100.4 19 88 17 *
22:30 WSW 23 N/A N/A 100.3 18 89 17 *
21:30 WSW 23 gust 29 N/A N/A 100.3 19 88 17 *
20:30 WSW 24 gust 31 N/A N/A 100.3 19 87 17 *
19:30 WSW 21 gust 26 N/A N/A 100.2 19 87 17 *
18:30 WSW 23 gust 32 N/A N/A 100.3 19 85 17 *
17:30 WSW 24 gust 30 N/A N/A 100.4 19 86 17 *
16:30 WSW 25 gust 32 N/A N/A 100.3 19 85 16 *
15:30 WSW 20 gust 28 N/A N/A 100.3 20 81 16 *
14:30 WSW 21 gust 34 N/A N/A 100.4 21 79 17 26
13:30 WSW 24 gust 30 N/A N/A 100.5 20 79 17 25
12:30 SW 24 gust 31 N/A N/A 100.5 20 80 17 25
11:30 WSW 26 gust 32 N/A N/A 100.6 20 81 16 *
10:30 WSW 28 gust 33 N/A N/A 100.7 19 83 16 *
9:30 WSW 27 gust 33 N/A N/A 100.7 19 84 16 *
 
Map of Atlantic - Newfoundland marine weather areas Southwestern Grand Banks - 44138 Banquereau - 44139 Tail of the Bank - 44140 Nickerson Bank - 44251 Northeast Burgeo Bank - 44255 Blanc-Sablon Airport Cap Whittle Chevery Natashquan Airport Heath Point Miscou Island Grand Étang Ingonish Beach North Mountain St.Paul Island J.A. Douglas McCurdy Sydney Airport Charlottetown Airport East Point North Cape Argentia Bonavista Burgeo Cape Race Corner Brook Daniel's Harbour Englee Ferolle Point La Scie Port aux Basques Rocky Harbour Sagona Island St. Anthony Airport St. John's Int'l Airport St. Lawrence Stephenville Airport Twillingate Winterland Wreckhouse Cartwright Airport Mary's Harbour Grates Cove Pool's Island Marticot Island Long Pond Îles de la Madeleine Airport
Legend: buoyBuoy land stationLand Station